Sainte-Therese, Canada
Current Conditions -  °F | °C
As of 2:00 PM on Thursday 18 Dec 2014 (Local Time) from CYMX Reporting Station
Overcast Overcast  
Wind Chill: 26°   Ceiling: 2000
Heat Index: 32°   Visibility: 25mi
Dew Point: 27°   Wind: 6mph
Humidity: 80%   Direction: 310°NW
Pressure: 29.88"   Gusts: NA
Location:  45.63°N, 73.85°W
Report Text: CYMX 181900Z 31005KT 270V360 25SM OVC020 M00/M03 A2988 RMK SC8 SLP121
Loading
Personal Weather Stations






























Interactive Weather Map New forecast layout! Learn more

10-Day Weather Forecast

Advertisements
Track Severe Weather on mobile